Latest Coastal Weather Observations for Broome Port

IDW60701

Issued at 9:33 am WST Wednesday 22 February 2017 (issued every 10 minutes, with the page automatically refreshed every 10 minutes)

About coastal observations | Map of coastal stations | Coastal observations for WA | Marine services | Other Formats
Station Details ID: 003102 Name: BROOME NTC AWS Lat: -18.00 Lon: 122.22 Height: 0.0 m
Data from the previous 72 hours. | See also: Recent months for locations in Western Australia
Date/Time
WST
Temp
°C
Wind Pressure Rain since
9am
mm
Weather Cloud Vis
km
Sea
Height
m
Swell
Dir  Spd
kts
Gust
kts
hPa Trend Height
m
Period
s
Dir
22/09:30am 29.1 W 10 12 1011.8 - - - - - - - - -
22/09:00am 29.1 W 10 13 1011.8 - - - - - - - - -
22/08:30am 29.1 W 10 13 1011.9 - - - - - - - - -
22/08:00am 29.2 W 12 15 1011.7 - - - - - - - - -
22/07:30am 28.9 W 12 16 1011.4 - - - - - - - - -
22/07:00am 28.8 WNW 11 15 1011.3 - - - - - - - - -
22/06:30am 28.7 WNW 11 14 1010.8 - - - - - - - - -
22/06:00am 28.6 WNW 12 15 1010.2 - - - - - - - - -
22/05:30am 28.5 WNW 15 18 1009.9 - - - - - - - - -
22/05:00am 28.4 WNW 12 15 1010.0 - - - - - - - - -
22/04:30am 28.4 WNW 9 12 1010.0 - - - - - - - - -
22/04:00am 28.5 WNW 10 12 1009.8 - - - - - - - - -
22/03:30am 28.4 NW 9 11 1009.6 - - - - - - - - -
22/03:00am 28.3 NW 10 13 1009.3 - - - - - - - - -
22/02:30am 28.4 NW 9 13 1009.2 - - - - - - - - -
22/02:00am 28.4 NW 10 12 1009.1 - - - - - - - - -
22/01:30am 28.3 NW 10 13 1009.1 - - - - - - - - -
22/01:00am 28.3 NW 10 13 1009.3 - - - - - - - - -
22/12:30am 28.3 NW 9 11 1009.7 - - - - - - - - -
22/12:00am 28.4 NW 10 13 1010.0 - - - - - - - - -
 
Date/Time
WST
Temp
°C
Wind Pressure Rain since
9am
mm
Weather Cloud Vis
km
Sea
Height
m
Swell
Dir  Spd
kts
Gust
kts
hPa Trend Height
m
Period
s
Dir
21/11:30pm 28.4 NW 11 15 1010.2 - - - - - - - - -
21/11:00pm 28.5 NW 11 13 1010.5 - - - - - - - - -
21/10:30pm 28.5 NNW 9 12 1010.6 - - - - - - - - -
21/10:00pm 28.7 NNW 10 12 1010.6 - - - - - - - - -
21/09:30pm 28.6 NW 11 13 1010.6 - - - - - - - - -
21/09:00pm 28.8 NW 10 12 1010.5 - - - - - - - - -
21/08:30pm 28.7 NW 8 11 1010.4 - - - - - - - - -
21/08:00pm 28.7 NNW 8 11 1010.1 - - - - - - - - -
21/07:30pm 28.8 NW 10 13 1009.6 - - - - - - - - -
21/07:00pm 28.8 NNW 9 11 1009.2 - - - - - - - - -
21/06:30pm 28.8 NNW 9 12 1009.0 - - - - - - - - -
21/06:00pm 29.1 NNW 10 13 1008.8 - - - - - - - - -
21/05:30pm 29.0 NW 13 16 1008.4 - - - - - - - - -
21/05:00pm 29.1 NW 14 17 1007.8 - - - - - - - - -
21/04:30pm 29.2 NW 14 16 1007.6 - - - - - - - - -
21/04:00pm 29.0 NW 13 16 1007.7 - - - - - - - - -
21/03:30pm 29.1 NW 13 16 1007.6 - - - - - - - - -
21/03:00pm 29.1 NW 12 15 1007.6 - - - - - - - - -
21/02:30pm 29.2 WNW 13 16 1007.6 - - - - - - - - -
21/02:00pm 29.1 WNW 12 15 1008.0 - - - - - - - - -
21/01:30pm 29.1 WNW 13 15 1008.2 - - - - - - - - -
21/01:00pm 28.9 NW 12 16 1008.5 - - - - - - - - -
21/12:30pm 28.9 WNW 11 14 1009.0 - - - - - - - - -
21/12:00pm 29.0 WNW 12 15 1009.5 - - - - - - - - -
21/11:30am 29.0 NW 9 12 1010.0 - - - - - - - - -
21/11:00am 29.2 NNW 8 12 1010.4 - - - - - - - - -
21/10:30am 29.0 NW 8 12 1010.7 - - - - - - - - -
21/10:00am 28.9 NW 7 10 1010.9 - - - - - - - - -
21/09:30am 28.8 NW 7 10 1011.0 - - - - - - - - -
21/09:00am 28.8 NW 7 10 1011.1 - - - - - - - - -
21/08:30am 28.7 NW 6 8 1010.9 - - - - - - - - -
21/08:00am 28.7 WNW 6 9 1010.6 - - - - - - - - -
21/07:30am 28.6 NW 6 9 1010.4 - - - - - - - - -
21/07:00am 28.4 NW 6 8 1010.1 - - - - - - - - -
21/06:30am 28.3 NW 6 8 1009.6 - - - - - - - - -
21/06:00am 28.3 NW 6 7 1009.2 - - - - - - - - -
21/05:30am 28.4 WNW 7 9 1008.7 - - - - - - - - -
21/05:00am 28.3 WNW 6 7 1008.4 - - - - - - - - -
21/04:30am 28.3 WNW 5 7 1008.1 - - - - - - - - -
21/04:00am 28.4 WNW 6 7 1008.0 - - - - - - - - -
21/03:30am 28.4 WNW 6 8 1007.9 - - - - - - - - -
21/03:00am 28.5 W 6 8 1008.1 - - - - - - - - -
21/02:30am 28.5 WNW 5 7 1008.1 - - - - - - - - -
21/02:00am 28.4 W 6 8 1008.0 - - - - - - - - -
21/01:30am 28.5 W 7 9 1008.0 - - - - - - - - -
21/01:00am 28.6 W 6 8 1008.4 - - - - - - - - -
21/12:30am 28.5 WNW 4 5 1008.6 - - - - - - - - -
21/12:00am 28.4 NW 5 6 1008.6 - - - - - - - - -
 
Date/Time
WST
Temp
°C
Wind Pressure Rain since
9am
mm
Weather Cloud Vis
km
Sea
Height
m
Swell
Dir  Spd
kts
Gust
kts
hPa Trend Height
m
Period
s
Dir
20/11:30pm 28.4 NW 3 4 1008.9 - - - - - - - - -
20/11:00pm 28.6 NW 5 6 1009.0 - - - - - - - - -
20/10:30pm 28.6 WNW 4 6 1009.2 - - - - - - - - -
20/10:00pm 28.7 NW 5 7 1009.0 - - - - - - - - -
20/09:30pm 28.7 WNW 6 8 1009.0 - - - - - - - - -
20/09:00pm 28.7 WNW 6 8 1008.9 - - - - - - - - -
20/08:30pm 28.8 NW 7 8 1008.8 - - - - - - - - -
20/08:00pm 29.0 W 5 7 1008.8 - - - - - - - - -
20/07:30pm 29.0 W 5 8 1008.8 - - - - - - - - -
20/07:00pm 28.9 NW 9 12 1007.9 - - - - - - - - -
20/06:30pm 28.9 NW 9 12 1007.6 - - - - - - - - -
20/06:00pm 29.0 NW 12 14 1007.4 - - - - - - - - -
20/05:30pm 29.2 NW 13 17 1006.6 - - - - - - - - -
20/05:00pm 29.1 NW 14 18 1005.7 - - - - - - - - -
20/04:30pm 29.2 NW 13 16 1006.0 - - - - - - - - -
20/04:00pm 29.2 WNW 13 15 1005.9 - - - - - - - - -
20/03:30pm 29.3 WNW 13 15 1005.9 - - - - - - - - -
20/03:00pm 29.2 WNW 12 16 1005.9 - - - - - - - - -
20/02:30pm 29.1 WNW 12 15 1005.9 - - - - - - - - -
20/02:00pm 29.1 NW 10 14 1006.3 - - - - - - - - -
20/01:30pm 29.1 NW 10 13 1006.5 - - - - - - - - -
20/01:00pm 28.9 NW 9 13 1006.7 - - - - - - - - -
20/12:30pm 28.9 NW 9 12 1007.1 - - - - - - - - -
20/12:00pm 28.9 W 7 9 1007.4 - - - - - - - - -
20/11:30am 28.7 W 7 10 1007.7 - - - - - - - - -
20/11:00am 28.9 WNW 9 12 1008.1 - - - - - - - - -
20/10:30am 29.0 WNW 9 11 1008.3 - - - - - - - - -
20/10:00am 28.8 WNW 12 14 1008.4 - - - - - - - - -
20/09:30am 28.7 WNW 11 13 1008.6 - - - - - - - - -
20/09:00am 28.9 NW 9 13 1008.8 - - - - - - - - -
20/08:30am 28.7 WNW 10 13 1009.0 - - - - - - - - -
20/08:00am 28.4 NW 10 13 1008.8 - - - - - - - - -
20/07:30am 28.2 NNW 7 10 1008.8 - - - - - - - - -
20/07:00am 27.8 NNW 8 9 1008.7 - - - - - - - - -
20/06:30am 27.7 NW 9 12 1008.2 - - - - - - - - -
20/06:00am 27.5 NW 10 13 1007.9 - - - - - - - - -
20/05:30am 27.4 NW 12 15 1007.2 - - - - - - - - -
20/05:00am 27.4 NW 13 16 1007.2 - - - - - - - - -
20/04:30am 27.5 NNW 11 14 1007.5 - - - - - - - - -
20/04:00am 27.4 NNW 13 16 1007.3 - - - - - - - - -
20/03:30am 25.8 N 14 18 1007.2 - - - - - - - - -
20/03:00am 25.1 N 14 18 1007.6 - - - - - - - - -
20/02:30am 25.4 NNE 16 20 1008.2 - - - - - - - - -
20/02:00am 27.7 ENE 11 16 1008.3 - - - - - - - - -
20/01:30am 28.4 NW 8 10 1007.7 - - - - - - - - -
20/01:00am 28.4 NW 9 11 1007.7 - - - - - - - - -
20/12:30am 28.4 NW 9 12 1007.8 - - - - - - - - -
20/12:00am 28.4 NW 9 11 1008.0 - - - - - - - - -
 
Date/Time
WST
Temp
°C
Wind Pressure Rain since
9am
mm
Weather Cloud Vis
km
Sea
Height
m
Swell
Dir  Spd
kts
Gust
kts
hPa Trend Height
m
Period
s
Dir
19/11:30pm 28.6 NW 7 10 1008.3 - - - - - - - - -
19/11:00pm 28.5 NW 7 10 1008.7 - - - - - - - - -
19/10:30pm 28.6 NW 8 10 1008.7 - - - - - - - - -
19/10:00pm 28.7 NW 9 11 1008.7 - - - - - - - - -
19/09:30pm 28.8 NW 8 10 1008.6 - - - - - - - - -
19/09:00pm 28.7 WNW 11 14 1007.9 - - - - - - - - -
19/08:30pm 28.7 WNW 11 14 1007.8 - - - - - - - - -
19/08:00pm 28.7 WNW 11 14 1007.6 - - - - - - - - -
19/07:30pm 28.8 WNW 11 15 1007.2 - - - - - - - - -
19/07:00pm 28.8 WNW 13 17 1006.8 - - - - - - - - -
19/06:30pm 28.8 WNW 14 16 1006.4 - - - - - - - - -
19/06:00pm 28.9 WNW 14 17 1006.1 - - - - - - - - -
19/05:30pm 29.1 WNW 15 19 1005.9 - - - - - - - - -
19/05:00pm 29.0 WNW 16 19 1005.9 - - - - - - - - -
19/04:30pm 29.1 WNW 16 19 1005.9 - - - - - - - - -
19/04:00pm 29.3 WNW 16 20 1006.0 - - - - - - - - -
19/03:30pm 29.4 WNW 16 19 1006.2 - - - - - - - - -
19/03:00pm 29.3 WNW 16 20 1006.1 - - - - - - - - -
19/02:30pm 29.4 WNW 17 19 1006.3 - - - - - - - - -
19/02:00pm 29.7 WNW 15 21 1006.4 - - - - - - - - -
19/01:30pm 29.4 WNW 16 19 1006.7 - - - - - - - - -
19/01:00pm 29.6 WNW 17 20 1007.1 - - - - - - - - -
19/12:30pm 29.4 WNW 16 19 1007.4 - - - - - - - - -
19/12:00pm 29.6 WNW 15 18 1008.0 - - - - - - - - -
19/11:30am 29.7 W 14 19 1008.4 - - - - - - - - -
19/11:00am 29.4 W 15 19 1008.6 - - - - - - - - -
19/10:30am 29.3 W 13 16 1009.1 - - - - - - - - -
19/10:00am 29.3 WSW 14 17 1009.5 - - - - - - - - -

Other Formats:

Comma delimited format used in spreadsheet applications
http://www.bom.gov.au/fwo/IDW60701/IDW60701.95202.axf

JavaScript Object Notation format (JSON) in row-major order
http://www.bom.gov.au/fwo/IDW60701/IDW60701.95202.json